sensor_id;sensor_type;location;lat;lon;timestamp;temperature;humidity
23291;DHT22;11814;44.686;10.842;2022-10-31T00:00:24;15.30;99.90
23291;DHT22;11814;44.686;10.842;2022-10-31T00:02:50;15.30;99.90
23291;DHT22;11814;44.686;10.842;2022-10-31T00:05:16;15.30;99.90
23291;DHT22;11814;44.686;10.842;2022-10-31T00:07:41;15.30;99.90
23291;DHT22;11814;44.686;10.842;2022-10-31T00:10:08;15.30;99.90
23291;DHT22;11814;44.686;10.842;2022-10-31T00:12:33;15.20;99.90
23291;DHT22;11814;44.686;10.842;2022-10-31T00:14:59;15.20;99.90
23291;DHT22;11814;44.686;10.842;2022-10-31T00:17:25;15.20;99.90
23291;DHT22;11814;44.686;10.842;2022-10-31T00:19:51;15.20;99.90
23291;DHT22;11814;44.686;10.842;2022-10-31T00:22:17;15.20;99.90
23291;DHT22;11814;44.686;10.842;2022-10-31T00:24:42;15.20;99.90
23291;DHT22;11814;44.686;10.842;2022-10-31T00:27:08;15.20;99.90
23291;DHT22;11814;44.686;10.842;2022-10-31T00:29:34;15.20;99.90
23291;DHT22;11814;44.686;10.842;2022-10-31T00:31:59;15.10;99.90
23291;DHT22;11814;44.686;10.842;2022-10-31T00:34:25;15.10;99.90
23291;DHT22;11814;44.686;10.842;2022-10-31T00:36:51;15.10;99.90
23291;DHT22;11814;44.686;10.842;2022-10-31T00:39:16;15.10;99.90
23291;DHT22;11814;44.686;10.842;2022-10-31T00:41:42;15.10;99.90
23291;DHT22;11814;44.686;10.842;2022-10-31T00:44:08;15.00;99.90
23291;DHT22;11814;44.686;10.842;2022-10-31T00:46:33;15.00;99.90
23291;DHT22;11814;44.686;10.842;2022-10-31T00:48:59;14.90;99.90
23291;DHT22;11814;44.686;10.842;2022-10-31T00:51:25;14.90;99.90
23291;DHT22;11814;44.686;10.842;2022-10-31T00:53:51;14.90;99.90
23291;DHT22;11814;44.686;10.842;2022-10-31T00:56:16;14.90;99.90
23291;DHT22;11814;44.686;10.842;2022-10-31T00:58:42;14.90;99.90
23291;DHT22;11814;44.686;10.842;2022-10-31T01:01:08;14.90;99.90
23291;DHT22;11814;44.686;10.842;2022-10-31T01:03:34;14.90;99.90
23291;DHT22;11814;44.686;10.842;2022-10-31T01:06:07;14.90;99.90
23291;DHT22;11814;44.686;10.842;2022-10-31T01:08:33;14.80;99.90
23291;DHT22;11814;44.686;10.842;2022-10-31T01:11:02;14.80;99.90
23291;DHT22;11814;44.686;10.842;2022-10-31T01:13:29;14.80;99.90
23291;DHT22;11814;44.686;10.842;2022-10-31T01:15:56;14.70;99.90
23291;DHT22;11814;44.686;10.842;2022-10-31T01:18:21;14.70;99.90
23291;DHT22;11814;44.686;10.842;2022-10-31T01:20:47;14.60;99.90
23291;DHT22;11814;44.686;10.842;2022-10-31T01:23:21;14.60;99.90
23291;DHT22;11814;44.686;10.842;2022-10-31T01:25:47;14.60;99.90
23291;DHT22;11814;44.686;10.842;2022-10-31T01:28:13;14.60;99.90
23291;DHT22;11814;44.686;10.842;2022-10-31T01:30:38;14.60;99.90
23291;DHT22;11814;44.686;10.842;2022-10-31T01:33:05;14.60;99.90
23291;DHT22;11814;44.686;10.842;2022-10-31T01:35:31;14.50;99.90
23291;DHT22;11814;44.686;10.842;2022-10-31T01:37:57;14.50;99.90
23291;DHT22;11814;44.686;10.842;2022-10-31T01:40:22;14.50;99.90
23291;DHT22;11814;44.686;10.842;2022-10-31T01:42:48;14.50;99.90
23291;DHT22;11814;44.686;10.842;2022-10-31T01:45:15;14.40;99.90
23291;DHT22;11814;44.686;10.842;2022-10-31T01:47:46;14.40;99.90
23291;DHT22;11814;44.686;10.842;2022-10-31T01:50:21;14.30;99.90
23291;DHT22;11814;44.686;10.842;2022-10-31T01:52:51;14.20;99.90
23291;DHT22;11814;44.686;10.842;2022-10-31T01:55:25;14.30;99.90
23291;DHT22;11814;44.686;10.842;2022-10-31T01:57:54;14.30;99.90
23291;DHT22;11814;44.686;10.842;2022-10-31T02:00:21;14.30;99.90
23291;DHT22;11814;44.686;10.842;2022-10-31T02:02:49;14.30;99.90
23291;DHT22;11814;44.686;10.842;2022-10-31T02:05:25;14.30;99.90
23291;DHT22;11814;44.686;10.842;2022-10-31T02:07:59;14.30;99.90
23291;DHT22;11814;44.686;10.842;2022-10-31T02:10:27;14.30;99.90
23291;DHT22;11814;44.686;10.842;2022-10-31T02:12:56;14.30;99.90
23291;DHT22;11814;44.686;10.842;2022-10-31T02:15:23;14.30;99.90
23291;DHT22;11814;44.686;10.842;2022-10-31T02:17:49;14.30;99.90
23291;DHT22;11814;44.686;10.842;2022-10-31T02:20:19;14.20;99.90
23291;DHT22;11814;44.686;10.842;2022-10-31T02:23:17;14.20;99.90
23291;DHT22;11814;44.686;10.842;2022-10-31T02:34:56;14.10;99.90
23291;DHT22;11814;44.686;10.842;2022-10-31T02:45:26;14.10;99.90
23291;DHT22;11814;44.686;10.842;2022-10-31T02:47:55;14.10;99.90
23291;DHT22;11814;44.686;10.842;2022-10-31T02:50:28;14.10;99.90
23291;DHT22;11814;44.686;10.842;2022-10-31T02:52:56;14.10;99.90
23291;DHT22;11814;44.686;10.842;2022-10-31T02:57:59;14.00;99.90
23291;DHT22;11814;44.686;10.842;2022-10-31T03:00:26;14.00;99.90
23291;DHT22;11814;44.686;10.842;2022-10-31T03:05:58;14.00;99.90
23291;DHT22;11814;44.686;10.842;2022-10-31T03:08:35;13.90;99.90
23291;DHT22;11814;44.686;10.842;2022-10-31T03:11:05;13.90;99.90
23291;DHT22;11814;44.686;10.842;2022-10-31T03:16:16;13.90;99.90
23291;DHT22;11814;44.686;10.842;2022-10-31T03:18:49;13.90;99.90
23291;DHT22;11814;44.686;10.842;2022-10-31T03:21:26;13.90;99.90
23291;DHT22;11814;44.686;10.842;2022-10-31T03:23:53;13.90;99.90
23291;DHT22;11814;44.686;10.842;2022-10-31T03:26:21;13.90;99.90
23291;DHT22;11814;44.686;10.842;2022-10-31T03:28:56;13.90;99.90
23291;DHT22;11814;44.686;10.842;2022-10-31T03:31:27;13.90;99.90
23291;DHT22;11814;44.686;10.842;2022-10-31T03:33:56;13.90;99.90
23291;DHT22;11814;44.686;10.842;2022-10-31T03:36:25;13.90;99.90
23291;DHT22;11814;44.686;10.842;2022-10-31T03:38:51;13.90;99.90
23291;DHT22;11814;44.686;10.842;2022-10-31T03:41:22;13.90;99.90
23291;DHT22;11814;44.686;10.842;2022-10-31T03:44:01;13.80;99.90
23291;DHT22;11814;44.686;10.842;2022-10-31T03:46:29;13.90;99.90
23291;DHT22;11814;44.686;10.842;2022-10-31T03:48:55;13.90;99.90
23291;DHT22;11814;44.686;10.842;2022-10-31T03:51:51;13.90;99.90
23291;DHT22;11814;44.686;10.842;2022-10-31T03:54:42;13.80;99.90
23291;DHT22;11814;44.686;10.842;2022-10-31T03:57:14;13.90;99.90
23291;DHT22;11814;44.686;10.842;2022-10-31T03:59:48;13.90;99.90
23291;DHT22;11814;44.686;10.842;2022-10-31T04:02:18;14.00;99.90
23291;DHT22;11814;44.686;10.842;2022-10-31T04:04:45;13.90;99.90
23291;DHT22;11814;44.686;10.842;2022-10-31T04:07:11;13.90;99.90
23291;DHT22;11814;44.686;10.842;2022-10-31T04:09:43;13.90;99.90
23291;DHT22;11814;44.686;10.842;2022-10-31T04:12:12;14.00;99.90
23291;DHT22;11814;44.686;10.842;2022-10-31T04:14:42;13.80;99.90
23291;DHT22;11814;44.686;10.842;2022-10-31T04:17:12;13.80;99.90
23291;DHT22;11814;44.686;10.842;2022-10-31T04:19:39;13.80;99.90
23291;DHT22;11814;44.686;10.842;2022-10-31T04:22:05;13.80;99.90
23291;DHT22;11814;44.686;10.842;2022-10-31T04:24:31;13.80;99.90
23291;DHT22;11814;44.686;10.842;2022-10-31T04:26:57;13.80;99.90
23291;DHT22;11814;44.686;10.842;2022-10-31T04:29:22;13.80;99.90
23291;DHT22;11814;44.686;10.842;2022-10-31T04:31:48;13.80;99.90
23291;DHT22;11814;44.686;10.842;2022-10-31T04:34:14;13.70;99.90
23291;DHT22;11814;44.686;10.842;2022-10-31T04:36:40;13.70;99.90
23291;DHT22;11814;44.686;10.842;2022-10-31T04:39:05;13.70;99.90
23291;DHT22;11814;44.686;10.842;2022-10-31T04:41:31;13.70;99.90
23291;DHT22;11814;44.686;10.842;2022-10-31T04:43:57;13.70;99.90
23291;DHT22;11814;44.686;10.842;2022-10-31T04:46:22;13.70;99.90
23291;DHT22;11814;44.686;10.842;2022-10-31T04:48:48;13.70;99.90
23291;DHT22;11814;44.686;10.842;2022-10-31T04:51:14;13.70;99.90
23291;DHT22;11814;44.686;10.842;2022-10-31T04:53:40;13.60;99.90
23291;DHT22;11814;44.686;10.842;2022-10-31T04:56:06;13.60;99.90
23291;DHT22;11814;44.686;10.842;2022-10-31T04:58:31;13.60;99.90
23291;DHT22;11814;44.686;10.842;2022-10-31T05:00:57;13.60;99.90
23291;DHT22;11814;44.686;10.842;2022-10-31T05:03:23;13.60;99.90
23291;DHT22;11814;44.686;10.842;2022-10-31T05:05:49;13.60;99.90
23291;DHT22;11814;44.686;10.842;2022-10-31T05:08:15;13.60;99.90
23291;DHT22;11814;44.686;10.842;2022-10-31T05:10:41;13.70;99.90
23291;DHT22;11814;44.686;10.842;2022-10-31T05:13:07;13.70;99.90
23291;DHT22;11814;44.686;10.842;2022-10-31T05:15:33;13.70;99.90
23291;DHT22;11814;44.686;10.842;2022-10-31T05:17:59;13.70;99.90
23291;DHT22;11814;44.686;10.842;2022-10-31T05:20:27;13.70;99.90
23291;DHT22;11814;44.686;10.842;2022-10-31T05:22:55;13.70;99.90
23291;DHT22;11814;44.686;10.842;2022-10-31T05:25:23;13.70;99.90
23291;DHT22;11814;44.686;10.842;2022-10-31T05:27:50;13.70;99.90
23291;DHT22;11814;44.686;10.842;2022-10-31T05:30:19;13.70;99.90
23291;DHT22;11814;44.686;10.842;2022-10-31T05:32:47;13.70;99.90
23291;DHT22;11814;44.686;10.842;2022-10-31T05:35:22;13.60;99.90
23291;DHT22;11814;44.686;10.842;2022-10-31T05:37:48;13.60;99.90
23291;DHT22;11814;44.686;10.842;2022-10-31T05:40:15;13.60;99.90
23291;DHT22;11814;44.686;10.842;2022-10-31T05:42:42;13.50;99.90
23291;DHT22;11814;44.686;10.842;2022-10-31T05:45:15;13.50;99.90
23291;DHT22;11814;44.686;10.842;2022-10-31T05:47:41;13.50;99.90
23291;DHT22;11814;44.686;10.842;2022-10-31T05:50:08;13.50;99.90
23291;DHT22;11814;44.686;10.842;2022-10-31T05:52:34;13.40;99.90
23291;DHT22;11814;44.686;10.842;2022-10-31T05:55:00;13.40;99.90
23291;DHT22;11814;44.686;10.842;2022-10-31T05:57:26;13.40;99.90
23291;DHT22;11814;44.686;10.842;2022-10-31T05:59:52;13.40;99.90
23291;DHT22;11814;44.686;10.842;2022-10-31T06:02:21;13.30;99.90
23291;DHT22;11814;44.686;10.842;2022-10-31T06:04:47;13.30;99.90
23291;DHT22;11814;44.686;10.842;2022-10-31T06:07:13;13.20;99.90
23291;DHT22;11814;44.686;10.842;2022-10-31T06:09:38;13.30;99.90
23291;DHT22;11814;44.686;10.842;2022-10-31T06:12:04;13.20;99.90
23291;DHT22;11814;44.686;10.842;2022-10-31T06:14:30;13.20;99.90
23291;DHT22;11814;44.686;10.842;2022-10-31T06:16:56;13.20;99.90
23291;DHT22;11814;44.686;10.842;2022-10-31T06:19:22;13.20;99.90
23291;DHT22;11814;44.686;10.842;2022-10-31T06:21:47;13.20;99.90
23291;DHT22;11814;44.686;10.842;2022-10-31T06:24:13;13.20;99.90
23291;DHT22;11814;44.686;10.842;2022-10-31T06:26:40;13.20;99.90
23291;DHT22;11814;44.686;10.842;2022-10-31T06:29:06;13.30;99.90
23291;DHT22;11814;44.686;10.842;2022-10-31T06:31:32;13.30;99.90
23291;DHT22;11814;44.686;10.842;2022-10-31T06:33:58;13.30;99.90
23291;DHT22;11814;44.686;10.842;2022-10-31T06:36:23;13.40;99.90
23291;DHT22;11814;44.686;10.842;2022-10-31T06:38:49;13.60;99.90
23291;DHT22;11814;44.686;10.842;2022-10-31T06:41:15;13.90;99.90
23291;DHT22;11814;44.686;10.842;2022-10-31T06:43:40;14.20;99.90
23291;DHT22;11814;44.686;10.842;2022-10-31T06:46:06;14.50;99.90
23291;DHT22;11814;44.686;10.842;2022-10-31T06:48:32;14.70;99.90
23291;DHT22;11814;44.686;10.842;2022-10-31T06:50:58;14.80;99.90
23291;DHT22;11814;44.686;10.842;2022-10-31T06:53:25;14.90;99.90
23291;DHT22;11814;44.686;10.842;2022-10-31T06:55:51;15.00;99.90
23291;DHT22;11814;44.686;10.842;2022-10-31T06:58:16;15.00;99.90
23291;DHT22;11814;44.686;10.842;2022-10-31T07:00:42;15.20;99.90
23291;DHT22;11814;44.686;10.842;2022-10-31T07:03:12;15.20;99.90
23291;DHT22;11814;44.686;10.842;2022-10-31T07:05:39;15.30;99.90
23291;DHT22;11814;44.686;10.842;2022-10-31T07:08:11;15.40;99.90
23291;DHT22;11814;44.686;10.842;2022-10-31T07:10:39;15.50;99.90
23291;DHT22;11814;44.686;10.842;2022-10-31T07:13:06;15.80;99.90
23291;DHT22;11814;44.686;10.842;2022-10-31T07:15:36;15.90;99.90
23291;DHT22;11814;44.686;10.842;2022-10-31T07:18:03;16.20;99.90
23291;DHT22;11814;44.686;10.842;2022-10-31T07:20:30;16.30;99.90
23291;DHT22;11814;44.686;10.842;2022-10-31T07:22:56;16.50;99.90
23291;DHT22;11814;44.686;10.842;2022-10-31T07:25:22;16.60;99.90
23291;DHT22;11814;44.686;10.842;2022-10-31T07:27:48;16.70;99.90
23291;DHT22;11814;44.686;10.842;2022-10-31T07:30:14;16.90;99.90
23291;DHT22;11814;44.686;10.842;2022-10-31T07:32:47;17.10;99.90
23291;DHT22;11814;44.686;10.842;2022-10-31T07:35:18;17.30;99.90
23291;DHT22;11814;44.686;10.842;2022-10-31T07:37:44;17.30;99.90
23291;DHT22;11814;44.686;10.842;2022-10-31T07:40:10;17.50;99.90
23291;DHT22;11814;44.686;10.842;2022-10-31T07:42:42;17.60;99.90
23291;DHT22;11814;44.686;10.842;2022-10-31T07:45:10;17.70;99.90
23291;DHT22;11814;44.686;10.842;2022-10-31T07:47:44;17.80;99.90
23291;DHT22;11814;44.686;10.842;2022-10-31T07:50:13;17.90;99.90
23291;DHT22;11814;44.686;10.842;2022-10-31T07:52:39;18.00;99.90
23291;DHT22;11814;44.686;10.842;2022-10-31T07:55:05;18.10;99.90
23291;DHT22;11814;44.686;10.842;2022-10-31T07:57:31;18.40;99.90
23291;DHT22;11814;44.686;10.842;2022-10-31T07:59:57;18.50;99.90
23291;DHT22;11814;44.686;10.842;2022-10-31T08:02:23;18.60;99.90
23291;DHT22;11814;44.686;10.842;2022-10-31T08:04:49;18.70;99.90
23291;DHT22;11814;44.686;10.842;2022-10-31T08:07:15;18.80;99.90
23291;DHT22;11814;44.686;10.842;2022-10-31T08:09:41;18.90;99.90
23291;DHT22;11814;44.686;10.842;2022-10-31T08:12:06;19.00;99.90
23291;DHT22;11814;44.686;10.842;2022-10-31T08:14:32;19.20;99.90
23291;DHT22;11814;44.686;10.842;2022-10-31T08:16:58;19.30;99.90
23291;DHT22;11814;44.686;10.842;2022-10-31T08:19:23;19.50;99.90
23291;DHT22;11814;44.686;10.842;2022-10-31T08:21:53;19.60;99.90
23291;DHT22;11814;44.686;10.842;2022-10-31T08:24:21;19.70;99.90
23291;DHT22;11814;44.686;10.842;2022-10-31T08:26:47;19.80;99.90
23291;DHT22;11814;44.686;10.842;2022-10-31T08:29:13;19.90;99.90
23291;DHT22;11814;44.686;10.842;2022-10-31T08:31:40;20.00;99.90
23291;DHT22;11814;44.686;10.842;2022-10-31T08:34:06;20.10;99.90
23291;DHT22;11814;44.686;10.842;2022-10-31T08:36:31;20.20;99.70
23291;DHT22;11814;44.686;10.842;2022-10-31T08:38:57;20.50;99.60
23291;DHT22;11814;44.686;10.842;2022-10-31T08:41:23;21.00;99.90
23291;DHT22;11814;44.686;10.842;2022-10-31T08:43:49;21.80;99.60
23291;DHT22;11814;44.686;10.842;2022-10-31T08:46:15;22.40;97.00
23291;DHT22;11814;44.686;10.842;2022-10-31T08:48:41;22.80;95.00
23291;DHT22;11814;44.686;10.842;2022-10-31T08:51:08;23.20;93.50
23291;DHT22;11814;44.686;10.842;2022-10-31T08:53:33;23.90;92.70
23291;DHT22;11814;44.686;10.842;2022-10-31T08:55:59;24.70;91.50
23291;DHT22;11814;44.686;10.842;2022-10-31T08:58:25;25.40;88.70
23291;DHT22;11814;44.686;10.842;2022-10-31T09:00:52;26.20;84.80
23291;DHT22;11814;44.686;10.842;2022-10-31T09:03:21;26.80;80.80
23291;DHT22;11814;44.686;10.842;2022-10-31T09:05:47;27.40;78.30
23291;DHT22;11814;44.686;10.842;2022-10-31T09:08:14;27.70;75.40
23291;DHT22;11814;44.686;10.842;2022-10-31T09:10:40;27.90;73.10
23291;DHT22;11814;44.686;10.842;2022-10-31T09:13:09;28.00;71.30
23291;DHT22;11814;44.686;10.842;2022-10-31T09:15:38;27.90;69.80
23291;DHT22;11814;44.686;10.842;2022-10-31T09:18:05;27.80;69.80
23291;DHT22;11814;44.686;10.842;2022-10-31T09:20:33;27.70;68.20
23291;DHT22;11814;44.686;10.842;2022-10-31T09:23:01;27.60;68.10
23291;DHT22;11814;44.686;10.842;2022-10-31T09:25:28;27.40;67.40
23291;DHT22;11814;44.686;10.842;2022-10-31T09:27:58;27.00;67.80
23291;DHT22;11814;44.686;10.842;2022-10-31T09:30:28;26.70;68.50
23291;DHT22;11814;44.686;10.842;2022-10-31T09:32:58;26.60;69.20
23291;DHT22;11814;44.686;10.842;2022-10-31T09:35:25;26.60;69.70
23291;DHT22;11814;44.686;10.842;2022-10-31T09:37:57;26.70;69.30
23291;DHT22;11814;44.686;10.842;2022-10-31T09:40:44;26.90;69.30
23291;DHT22;11814;44.686;10.842;2022-10-31T09:51:07;26.40;69.30
23291;DHT22;11814;44.686;10.842;2022-10-31T09:56:13;26.10;70.00
23291;DHT22;11814;44.686;10.842;2022-10-31T09:58:45;25.80;70.30
23291;DHT22;11814;44.686;10.842;2022-10-31T10:03:53;25.40;71.50
23291;DHT22;11814;44.686;10.842;2022-10-31T10:06:29;25.20;72.10
23291;DHT22;11814;44.686;10.842;2022-10-31T10:08:57;25.00;72.80
23291;DHT22;11814;44.686;10.842;2022-10-31T10:22:18;25.30;74.60
23291;DHT22;11814;44.686;10.842;2022-10-31T10:25:21;25.80;73.90
23291;DHT22;11814;44.686;10.842;2022-10-31T10:30:42;26.40;71.80
23291;DHT22;11814;44.686;10.842;2022-10-31T10:33:20;26.40;71.20
23291;DHT22;11814;44.686;10.842;2022-10-31T10:35:55;26.30;70.80
23291;DHT22;11814;44.686;10.842;2022-10-31T10:38:39;26.20;70.70
23291;DHT22;11814;44.686;10.842;2022-10-31T10:41:14;26.10;71.00
23291;DHT22;11814;44.686;10.842;2022-10-31T10:43:41;25.90;71.40
23291;DHT22;11814;44.686;10.842;2022-10-31T10:54:49;25.30;72.20
23291;DHT22;11814;44.686;10.842;2022-10-31T10:59:54;25.20;72.90
23291;DHT22;11814;44.686;10.842;2022-10-31T11:02:23;25.20;73.20
23291;DHT22;11814;44.686;10.842;2022-10-31T11:04:54;25.20;73.30
23291;DHT22;11814;44.686;10.842;2022-10-31T11:07:21;25.40;73.50
23291;DHT22;11814;44.686;10.842;2022-10-31T11:09:47;25.80;72.90
23291;DHT22;11814;44.686;10.842;2022-10-31T11:12:25;26.30;72.40
23291;DHT22;11814;44.686;10.842;2022-10-31T11:14:59;26.50;71.80
23291;DHT22;11814;44.686;10.842;2022-10-31T11:17:38;26.50;71.40
23291;DHT22;11814;44.686;10.842;2022-10-31T11:22:38;26.20;70.60
23291;DHT22;11814;44.686;10.842;2022-10-31T11:25:23;26.00;70.70
23291;DHT22;11814;44.686;10.842;2022-10-31T11:28:04;25.90;71.00
23291;DHT22;11814;44.686;10.842;2022-10-31T11:30:30;26.00;71.10
23291;DHT22;11814;44.686;10.842;2022-10-31T11:33:00;25.90;70.90
23291;DHT22;11814;44.686;10.842;2022-10-31T11:35:26;25.80;70.90
23291;DHT22;11814;44.686;10.842;2022-10-31T11:37:56;25.70;71.40
23291;DHT22;11814;44.686;10.842;2022-10-31T11:40:26;25.60;71.70
23291;DHT22;11814;44.686;10.842;2022-10-31T11:42:55;25.50;71.70
23291;DHT22;11814;44.686;10.842;2022-10-31T11:47:49;25.50;72.10
23291;DHT22;11814;44.686;10.842;2022-10-31T11:50:24;25.50;72.00
23291;DHT22;11814;44.686;10.842;2022-10-31T11:52:52;25.50;72.00
23291;DHT22;11814;44.686;10.842;2022-10-31T11:55:36;25.50;72.20
23291;DHT22;11814;44.686;10.842;2022-10-31T11:58:03;25.60;72.30
23291;DHT22;11814;44.686;10.842;2022-10-31T12:00:36;25.60;72.10
23291;DHT22;11814;44.686;10.842;2022-10-31T12:08:35;25.60;72.00
23291;DHT22;11814;44.686;10.842;2022-10-31T12:13:33;25.50;72.00
23291;DHT22;11814;44.686;10.842;2022-10-31T12:16:36;25.50;72.20
23291;DHT22;11814;44.686;10.842;2022-10-31T12:27:03;25.30;72.30
23291;DHT22;11814;44.686;10.842;2022-10-31T12:32:57;25.30;72.30
23291;DHT22;11814;44.686;10.842;2022-10-31T12:45:50;25.20;72.60
23291;DHT22;11814;44.686;10.842;2022-10-31T12:51:39;25.10;72.40
23291;DHT22;11814;44.686;10.842;2022-10-31T12:59:32;25.10;72.90
23291;DHT22;11814;44.686;10.842;2022-10-31T13:02:02;25.10;72.90
23291;DHT22;11814;44.686;10.842;2022-10-31T13:05:03;25.10;73.00
23291;DHT22;11814;44.686;10.842;2022-10-31T13:07:36;25.10;72.90
23291;DHT22;11814;44.686;10.842;2022-10-31T13:12:39;25.00;72.80
23291;DHT22;11814;44.686;10.842;2022-10-31T13:15:30;25.00;72.90
23291;DHT22;11814;44.686;10.842;2022-10-31T13:18:00;25.00;72.60
23291;DHT22;11814;44.686;10.842;2022-10-31T13:25:49;24.90;72.80
23291;DHT22;11814;44.686;10.842;2022-10-31T13:30:53;24.80;73.10
23291;DHT22;11814;44.686;10.842;2022-10-31T13:39:02;24.80;73.30
23291;DHT22;11814;44.686;10.842;2022-10-31T13:41:52;24.80;73.50
23291;DHT22;11814;44.686;10.842;2022-10-31T13:44:27;24.80;73.40
23291;DHT22;11814;44.686;10.842;2022-10-31T13:46:55;24.90;73.40
23291;DHT22;11814;44.686;10.842;2022-10-31T13:54:46;24.80;73.20
23291;DHT22;11814;44.686;10.842;2022-10-31T13:57:31;24.80;73.30
23291;DHT22;11814;44.686;10.842;2022-10-31T14:00:05;24.80;73.20
23291;DHT22;11814;44.686;10.842;2022-10-31T14:02:34;24.80;73.20
23291;DHT22;11814;44.686;10.842;2022-10-31T14:05:44;24.80;73.20
23291;DHT22;11814;44.686;10.842;2022-10-31T14:07:52;24.80;73.30
23291;DHT22;11814;44.686;10.842;2022-10-31T14:10:27;24.80;73.40
23291;DHT22;11814;44.686;10.842;2022-10-31T14:13:15;24.80;73.60
23291;DHT22;11814;44.686;10.842;2022-10-31T14:15:56;24.80;73.70
23291;DHT22;11814;44.686;10.842;2022-10-31T14:20:58;24.70;74.00
23291;DHT22;11814;44.686;10.842;2022-10-31T14:23:40;24.70;74.90
23291;DHT22;11814;44.686;10.842;2022-10-31T14:26:18;24.70;74.10
23291;DHT22;11814;44.686;10.842;2022-10-31T14:28:46;24.60;74.20
23291;DHT22;11814;44.686;10.842;2022-10-31T14:31:30;24.60;74.30
23291;DHT22;11814;44.686;10.842;2022-10-31T14:39:30;24.50;74.70
23291;DHT22;11814;44.686;10.842;2022-10-31T14:42:15;24.40;74.80
23291;DHT22;11814;44.686;10.842;2022-10-31T14:45:06;24.40;75.00
23291;DHT22;11814;44.686;10.842;2022-10-31T14:50:57;24.30;75.80
23291;DHT22;11814;44.686;10.842;2022-10-31T14:53:31;24.20;75.10
23291;DHT22;11814;44.686;10.842;2022-10-31T14:55:59;24.20;75.40
23291;DHT22;11814;44.686;10.842;2022-10-31T14:58:46;24.10;75.60
23291;DHT22;11814;44.686;10.842;2022-10-31T15:01:24;24.00;75.80
23291;DHT22;11814;44.686;10.842;2022-10-31T15:03:52;24.00;76.10
23291;DHT22;11814;44.686;10.842;2022-10-31T15:06:21;23.90;77.10
23291;DHT22;11814;44.686;10.842;2022-10-31T15:08:52;23.80;76.50
23291;DHT22;11814;44.686;10.842;2022-10-31T15:11:19;23.80;76.80
23291;DHT22;11814;44.686;10.842;2022-10-31T15:16:21;23.70;77.70
23291;DHT22;11814;44.686;10.842;2022-10-31T15:18:58;23.60;78.10
23291;DHT22;11814;44.686;10.842;2022-10-31T15:21:26;23.60;78.50
23291;DHT22;11814;44.686;10.842;2022-10-31T15:23:57;23.50;78.90
23291;DHT22;11814;44.686;10.842;2022-10-31T15:26:32;23.40;79.30
23291;DHT22;11814;44.686;10.842;2022-10-31T15:29:02;23.40;79.80
23291;DHT22;11814;44.686;10.842;2022-10-31T15:31:29;23.30;80.20
23291;DHT22;11814;44.686;10.842;2022-10-31T15:34:00;23.20;80.90
23291;DHT22;11814;44.686;10.842;2022-10-31T15:36:26;23.20;81.20
23291;DHT22;11814;44.686;10.842;2022-10-31T15:38:52;23.10;81.30
23291;DHT22;11814;44.686;10.842;2022-10-31T15:43:54;23.00;81.70
23291;DHT22;11814;44.686;10.842;2022-10-31T15:46:20;22.90;82.00
23291;DHT22;11814;44.686;10.842;2022-10-31T15:48:47;22.90;82.30
23291;DHT22;11814;44.686;10.842;2022-10-31T15:51:14;22.80;82.80
23291;DHT22;11814;44.686;10.842;2022-10-31T15:53:49;22.70;83.30
23291;DHT22;11814;44.686;10.842;2022-10-31T15:56:22;22.70;83.80
23291;DHT22;11814;44.686;10.842;2022-10-31T15:58:51;22.60;84.10
23291;DHT22;11814;44.686;10.842;2022-10-31T16:01:25;22.50;84.60
23291;DHT22;11814;44.686;10.842;2022-10-31T16:06:35;22.20;85.40
23291;DHT22;11814;44.686;10.842;2022-10-31T16:09:02;22.20;85.80
23291;DHT22;11814;44.686;10.842;2022-10-31T16:11:37;22.10;86.50
23291;DHT22;11814;44.686;10.842;2022-10-31T16:16:42;21.80;86.40
23291;DHT22;11814;44.686;10.842;2022-10-31T16:19:17;21.80;86.00
23291;DHT22;11814;44.686;10.842;2022-10-31T16:21:44;21.70;86.20
23291;DHT22;11814;44.686;10.842;2022-10-31T16:24:25;21.60;86.80
23291;DHT22;11814;44.686;10.842;2022-10-31T16:26:54;21.40;87.70
23291;DHT22;11814;44.686;10.842;2022-10-31T16:29:44;21.30;88.30
23291;DHT22;11814;44.686;10.842;2022-10-31T16:32:30;21.10;89.20
23291;DHT22;11814;44.686;10.842;2022-10-31T16:37:40;20.90;90.10
23291;DHT22;11814;44.686;10.842;2022-10-31T16:40:06;20.90;90.40
23291;DHT22;11814;44.686;10.842;2022-10-31T16:42:32;20.80;90.60
23291;DHT22;11814;44.686;10.842;2022-10-31T16:44:58;20.70;90.90
23291;DHT22;11814;44.686;10.842;2022-10-31T16:47:25;20.70;91.20
23291;DHT22;11814;44.686;10.842;2022-10-31T16:49:50;20.60;91.40
23291;DHT22;11814;44.686;10.842;2022-10-31T16:52:17;20.60;91.60
23291;DHT22;11814;44.686;10.842;2022-10-31T16:54:43;20.50;91.80
23291;DHT22;11814;44.686;10.842;2022-10-31T16:57:15;20.50;92.00
23291;DHT22;11814;44.686;10.842;2022-10-31T16:59:42;20.40;92.30
23291;DHT22;11814;44.686;10.842;2022-10-31T17:02:15;20.30;92.80
23291;DHT22;11814;44.686;10.842;2022-10-31T17:04:42;20.30;92.80
23291;DHT22;11814;44.686;10.842;2022-10-31T17:07:07;20.20;92.90
23291;DHT22;11814;44.686;10.842;2022-10-31T17:09:33;20.10;92.90
23291;DHT22;11814;44.686;10.842;2022-10-31T17:11:59;20.10;92.90
23291;DHT22;11814;44.686;10.842;2022-10-31T17:14:25;20.00;92.90
23291;DHT22;11814;44.686;10.842;2022-10-31T17:16:51;20.00;92.90
23291;DHT22;11814;44.686;10.842;2022-10-31T17:19:16;20.00;92.80
23291;DHT22;11814;44.686;10.842;2022-10-31T17:21:42;19.90;92.60
23291;DHT22;11814;44.686;10.842;2022-10-31T17:24:12;19.80;92.50
23291;DHT22;11814;44.686;10.842;2022-10-31T17:26:38;19.70;92.70
23291;DHT22;11814;44.686;10.842;2022-10-31T17:29:04;19.70;92.90
23291;DHT22;11814;44.686;10.842;2022-10-31T17:31:31;19.70;93.00
23291;DHT22;11814;44.686;10.842;2022-10-31T17:33:58;19.60;93.40
23291;DHT22;11814;44.686;10.842;2022-10-31T17:36:25;19.60;93.50
23291;DHT22;11814;44.686;10.842;2022-10-31T17:38:50;19.50;93.30
23291;DHT22;11814;44.686;10.842;2022-10-31T17:41:16;19.50;93.30
23291;DHT22;11814;44.686;10.842;2022-10-31T17:43:42;19.40;93.20
23291;DHT22;11814;44.686;10.842;2022-10-31T17:46:08;19.30;93.10
23291;DHT22;11814;44.686;10.842;2022-10-31T17:48:35;19.20;93.10
23291;DHT22;11814;44.686;10.842;2022-10-31T17:51:02;19.20;93.30
23291;DHT22;11814;44.686;10.842;2022-10-31T17:53:30;19.20;93.40
23291;DHT22;11814;44.686;10.842;2022-10-31T17:56:06;19.10;93.50
23291;DHT22;11814;44.686;10.842;2022-10-31T17:58:34;19.10;93.60
23291;DHT22;11814;44.686;10.842;2022-10-31T18:01:05;19.00;93.80